createdAt,value
2018-04-16T00:01:58.811Z,72.70
2018-04-16T00:04:26.470Z,74.30
2018-04-16T00:06:54.102Z,73.70
2018-04-16T00:09:21.729Z,73.20
2018-04-16T00:11:49.329Z,72.10
2018-04-16T00:14:16.940Z,72.10
2018-04-16T00:16:45.324Z,73.30
2018-04-16T00:19:12.882Z,73.30
2018-04-16T00:21:41.292Z,74.20
2018-04-16T00:24:08.897Z,74.20
2018-04-16T00:26:38.034Z,74.90
2018-04-16T00:29:05.664Z,74.90
2018-04-16T00:34:45.563Z,74.90
2018-04-16T00:37:18.741Z,76.00
2018-04-16T00:39:52.638Z,75.30
2018-04-16T00:42:25.843Z,75.20
2018-04-16T00:44:59.765Z,74.20
2018-04-16T00:47:33.036Z,74.10
2018-04-16T00:50:06.957Z,74.10
2018-04-16T00:52:41.057Z,74.30
2018-04-16T00:55:14.239Z,74.30
2018-04-16T00:57:47.545Z,73.60
2018-04-16T01:00:21.569Z,74.10
2018-04-16T01:03:05.240Z,74.10
2018-04-16T01:05:38.553Z,74.50
2018-04-16T01:08:12.049Z,73.80
2018-04-16T01:10:45.442Z,75.50
2018-04-16T01:13:18.794Z,75.10
2018-04-16T01:15:52.194Z,74.20
2018-04-16T01:18:25.430Z,74.40
2018-04-16T01:20:58.813Z,74.60
2018-04-16T01:23:32.027Z,74.80
2018-04-16T01:29:06.817Z,74.30
2018-04-16T01:31:40.795Z,78.00
2018-04-16T01:34:14.126Z,77.90
2018-04-16T01:39:52.188Z,76.70
2018-04-16T01:42:25.424Z,76.30
2018-04-16T01:44:58.633Z,76.40
2018-04-16T01:47:32.553Z,76.30
2018-04-16T01:50:05.649Z,76.30
2018-04-16T01:52:38.934Z,77.30
2018-04-16T01:55:12.099Z,77.50
2018-04-16T01:57:45.351Z,76.60
2018-04-16T02:00:18.599Z,76.20
2018-04-16T02:02:52.590Z,76.10
2018-04-16T02:05:25.935Z,76.00
2018-04-16T02:07:59.104Z,76.40
2018-04-16T02:10:32.410Z,75.60
2018-04-16T02:13:05.615Z,75.30
2018-04-16T02:15:39.074Z,75.40
2018-04-16T02:18:13.223Z,75.80
2018-04-16T02:20:46.598Z,75.80
2018-04-16T02:23:19.994Z,75.80
2018-04-16T02:25:53.335Z,75.50
2018-04-16T02:28:26.632Z,75.80
2018-04-16T02:30:59.930Z,76.70
2018-04-16T02:33:33.036Z,75.60
2018-04-16T02:36:07.180Z,75.00
2018-04-16T02:41:44.211Z,74.80
2018-04-16T02:44:17.355Z,74.30
2018-04-16T02:46:51.257Z,73.80
2018-04-16T02:49:25.147Z,74.40
2018-04-16T02:51:58.542Z,74.40
2018-04-16T02:54:31.803Z,74.50
2018-04-16T03:00:15.171Z,74.80
2018-04-16T03:02:48.431Z,75.20
2018-04-16T03:05:21.693Z,74.60
2018-04-16T03:07:55.663Z,75.90
2018-04-16T03:10:28.943Z,75.80
2018-04-16T03:13:02.127Z,75.30
2018-04-16T03:15:35.401Z,75.90
2018-04-16T03:18:08.589Z,75.60
2018-04-16T03:20:42.543Z,75.80
2018-04-16T03:23:15.695Z,75.80
2018-04-16T03:25:49.055Z,76.40
2018-04-16T03:28:22.305Z,76.70
2018-04-16T03:30:55.663Z,76.40
2018-04-16T03:33:29.700Z,76.20
2018-04-16T03:36:03.016Z,76.20
2018-04-16T03:38:36.300Z,75.20
2018-04-16T03:41:09.624Z,75.30
2018-04-16T03:43:42.979Z,75.50
2018-04-16T03:46:16.366Z,75.30
2018-04-16T03:48:49.562Z,75.80
2018-04-16T03:51:22.926Z,77.00
2018-04-16T03:53:52.456Z,77.00
2018-04-16T03:56:20.251Z,77.40
2018-04-16T03:58:47.889Z,77.30
2018-04-16T04:01:15.534Z,77.10
2018-04-16T04:03:43.107Z,77.10
2018-04-16T04:06:10.798Z,76.90
2018-04-16T04:08:38.431Z,77.50
2018-04-16T04:11:06.020Z,77.80
2018-04-16T04:13:33.635Z,78.40
2018-04-16T04:16:02.009Z,78.90
2018-04-16T04:18:30.370Z,78.70
2018-04-16T04:20:57.965Z,78.70
2018-04-16T04:23:37.490Z,77.90
2018-04-16T04:26:17.840Z,77.10
2018-04-16T04:29:00.610Z,77.00
2018-04-16T04:31:28.260Z,76.80
2018-04-16T04:33:55.863Z,76.80
2018-04-16T04:36:23.549Z,76.10
2018-04-16T04:38:52.112Z,75.90
2018-04-16T04:41:19.894Z,75.80
2018-04-16T04:43:48.616Z,76.30
2018-04-16T04:46:16.210Z,76.20
2018-04-16T04:48:43.865Z,76.00
2018-04-16T04:51:11.484Z,75.50
2018-04-16T04:53:39.077Z,76.50
2018-04-16T04:56:06.659Z,76.10
2018-04-16T04:58:34.269Z,77.20
2018-04-16T05:01:02.872Z,76.50
2018-04-16T05:03:30.502Z,77.30
2018-04-16T05:05:58.874Z,75.90
2018-04-16T05:08:27.241Z,75.90
2018-04-16T05:10:54.855Z,75.90
2018-04-16T05:13:22.433Z,75.50
2018-04-16T05:15:52.084Z,76.10
2018-04-16T05:18:20.514Z,75.50
2018-04-16T05:20:48.314Z,75.40
2018-04-16T05:23:16.880Z,75.10
2018-04-16T05:25:44.496Z,75.00
2018-04-16T05:28:12.494Z,75.00
2018-04-16T05:30:40.976Z,74.90
2018-04-16T05:33:08.686Z,74.70
2018-04-16T05:35:48.035Z,75.30
2018-04-16T05:38:15.623Z,75.30
2018-04-16T05:40:43.267Z,75.50
2018-04-16T05:43:23.515Z,75.70
2018-04-16T05:45:51.170Z,75.30
2018-04-16T05:48:18.860Z,75.20
2018-04-16T05:50:46.746Z,74.80
2018-04-16T05:53:15.599Z,75.10
2018-04-16T05:55:43.210Z,75.10
2018-04-16T05:58:10.802Z,74.90
2018-04-16T06:01:00.736Z,74.80
2018-04-16T06:03:35.311Z,74.80
2018-04-16T06:06:03.693Z,74.40
2018-04-16T06:08:44.848Z,75.10
2018-04-16T06:11:12.465Z,74.30
2018-04-16T06:13:45.914Z,74.10
2018-04-16T06:16:13.541Z,74.00
2018-04-16T06:18:43.168Z,74.20
2018-04-16T06:21:10.800Z,74.40
2018-04-16T06:23:40.340Z,74.30
2018-04-16T06:26:08.702Z,75.50
2018-04-16T06:28:36.270Z,75.50
2018-04-16T06:31:03.874Z,75.90
2018-04-16T06:33:32.252Z,76.10
2018-04-16T06:35:59.882Z,76.10
2018-04-16T06:38:27.484Z,76.00
2018-04-16T06:40:55.055Z,76.40
2018-04-16T06:43:22.664Z,76.30
2018-04-16T06:45:50.312Z,76.30
2018-04-16T06:48:17.920Z,76.20
2018-04-16T06:50:45.533Z,76.30
2018-04-16T06:53:13.193Z,76.20
2018-04-16T06:55:40.766Z,76.40
2018-04-16T06:58:08.816Z,76.10
2018-04-16T07:00:36.466Z,76.40
2018-04-16T07:03:04.081Z,76.70
2018-04-16T07:05:32.467Z,75.10
2018-04-16T07:08:01.602Z,75.00
2018-04-16T07:10:29.223Z,75.00
2018-04-16T07:12:57.570Z,74.90
2018-04-16T07:15:25.311Z,74.90
2018-04-16T07:17:53.074Z,74.30
2018-04-16T07:20:20.649Z,73.70
2018-04-16T07:22:48.237Z,73.70
2018-04-16T07:25:16.623Z,73.60
2018-04-16T07:27:44.977Z,73.80
2018-04-16T07:30:12.585Z,73.70
2018-04-16T07:32:40.185Z,73.60
2018-04-16T07:35:07.817Z,73.80
2018-04-16T07:37:35.424Z,73.80
2018-04-16T07:40:03.051Z,74.20
2018-04-16T07:42:30.644Z,74.20
2018-04-16T07:44:58.228Z,73.80
2018-04-16T07:47:26.650Z,73.80
2018-04-16T07:49:54.318Z,73.80
2018-04-16T07:52:21.986Z,74.10
2018-04-16T07:54:49.549Z,73.50
2018-04-16T07:57:17.198Z,72.80
2018-04-16T07:59:44.809Z,73.10
2018-04-16T08:02:13.165Z,72.00
2018-04-16T08:04:40.770Z,71.90
2018-04-16T08:07:08.386Z,72.40
2018-04-16T08:09:36.001Z,71.30
2018-04-16T08:12:03.598Z,71.10
2018-04-16T08:14:31.229Z,70.80
2018-04-16T08:16:58.833Z,69.90
2018-04-16T08:19:26.450Z,70.20
2018-04-16T08:21:54.242Z,68.90
2018-04-16T08:24:21.862Z,69.00
2018-04-16T08:26:49.462Z,68.90
2018-04-16T08:29:17.079Z,68.80
2018-04-16T08:31:45.103Z,68.10
2018-04-16T08:34:12.696Z,68.00
2018-04-16T08:36:41.042Z,67.80
2018-04-16T08:39:08.634Z,67.70
2018-04-16T08:41:36.316Z,68.60
2018-04-16T08:44:04.858Z,68.10
2018-04-16T08:46:32.418Z,67.40
2018-04-16T08:49:00.002Z,67.30
2018-04-16T08:51:28.390Z,66.10
2018-04-16T08:53:55.985Z,66.00
2018-04-16T08:56:23.589Z,65.60
2018-04-16T08:58:51.223Z,65.20
2018-04-16T09:01:18.842Z,64.60
2018-04-16T09:03:46.448Z,64.10
2018-04-16T09:06:14.038Z,63.80
2018-04-16T09:08:42.469Z,62.60
2018-04-16T09:11:10.014Z,62.60
2018-04-16T09:13:37.612Z,62.20
2018-04-16T09:16:05.196Z,62.20
2018-04-16T09:18:33.578Z,61.00
2018-04-16T09:21:01.976Z,61.80
2018-04-16T09:23:29.553Z,61.80
2018-04-16T09:25:57.161Z,60.70
2018-04-16T09:28:24.779Z,61.00
2018-04-16T09:30:52.409Z,60.00
2018-04-16T09:33:22.256Z,60.30
2018-04-16T09:35:50.624Z,60.70
2018-04-16T09:38:18.991Z,60.00
2018-04-16T09:40:46.597Z,60.00
2018-04-16T09:43:14.191Z,60.80
2018-04-16T09:45:41.823Z,59.00
2018-04-16T09:48:09.425Z,58.50
2018-04-16T09:50:38.537Z,58.60
2018-04-16T09:53:06.911Z,58.60
2018-04-16T09:55:34.527Z,58.60
2018-04-16T09:58:02.153Z,57.80
2018-04-16T10:00:29.737Z,57.90
2018-04-16T10:02:58.267Z,58.10
2018-04-16T10:05:25.941Z,58.80
2018-04-16T10:07:54.383Z,58.80
2018-04-16T10:10:21.957Z,58.80
2018-04-16T10:12:49.514Z,59.00
2018-04-16T10:15:17.114Z,58.80
2018-04-16T10:17:44.739Z,58.80
2018-04-16T10:20:12.495Z,58.80
2018-04-16T10:22:40.099Z,58.30
2018-04-16T10:25:08.483Z,58.50
2018-04-16T10:27:36.808Z,58.40
2018-04-16T10:30:04.450Z,58.30
2018-04-16T10:32:32.069Z,57.30
2018-04-16T10:35:00.447Z,58.30
2018-04-16T10:37:28.810Z,57.90
2018-04-16T10:40:07.210Z,57.80
2018-04-16T10:42:34.928Z,57.70
2018-04-16T10:45:03.573Z,58.10
2018-04-16T10:47:31.145Z,57.50
2018-04-16T10:49:59.463Z,58.30
2018-04-16T10:52:35.368Z,58.00
2018-04-16T10:55:02.988Z,57.90
2018-04-16T10:57:30.593Z,57.30
2018-04-16T10:59:58.194Z,57.80
2018-04-16T11:02:25.778Z,57.60
2018-04-16T11:04:53.348Z,57.60
2018-04-16T11:07:20.948Z,57.10
2018-04-16T11:09:49.319Z,57.60
2018-04-16T11:12:17.698Z,58.40
2018-04-16T11:14:46.018Z,56.20
2018-04-16T11:17:13.622Z,56.20
2018-04-16T11:19:42.758Z,56.10
2018-04-16T11:22:10.352Z,56.00
2018-04-16T11:24:48.217Z,57.00
2018-04-16T11:27:21.492Z,56.10
2018-04-16T11:29:49.867Z,55.80
2018-04-16T11:32:18.256Z,56.10
2018-04-16T11:34:50.638Z,55.20
2018-04-16T11:37:18.252Z,55.20
2018-04-16T11:39:49.612Z,55.60
2018-04-16T11:42:17.214Z,56.10
2018-04-16T11:44:44.847Z,55.60
2018-04-16T11:47:13.227Z,56.00
2018-04-16T11:49:41.626Z,56.00
2018-04-16T11:52:09.250Z,56.00
2018-04-16T11:54:36.865Z,56.20
2018-04-16T11:57:04.728Z,55.30
2018-04-16T11:59:32.316Z,55.10
2018-04-16T12:01:59.912Z,55.80
2018-04-16T12:04:28.359Z,56.40
2018-04-16T12:06:55.849Z,55.90
2018-04-16T12:09:24.248Z,55.40
2018-04-16T12:11:52.612Z,55.40
2018-04-16T12:14:20.976Z,54.90
2018-04-16T12:16:48.607Z,54.80
2018-04-16T12:19:16.190Z,55.60
2018-04-16T12:21:49.629Z,55.40
2018-04-16T12:24:23.274Z,55.50
2018-04-16T12:26:50.889Z,54.50
2018-04-16T12:29:18.492Z,54.40
2018-04-16T12:31:57.836Z,54.60
2018-04-16T12:34:25.478Z,54.30
2018-04-16T12:36:53.079Z,54.90
2018-04-16T12:39:26.541Z,53.60
2018-04-16T12:41:54.182Z,53.70
2018-04-16T12:44:39.575Z,53.10
2018-04-16T12:47:07.204Z,52.90
2018-04-16T12:49:34.802Z,54.40
2018-04-16T12:52:02.437Z,53.40
2018-04-16T12:54:35.996Z,54.50
2018-04-16T12:57:03.593Z,52.90
2018-04-16T12:59:31.284Z,52.50
2018-04-16T13:02:04.801Z,53.60
2018-04-16T13:04:32.408Z,52.50
2018-04-16T13:07:05.625Z,52.00
2018-04-16T13:09:39.008Z,52.30
2018-04-16T13:12:12.464Z,52.20
2018-04-16T13:14:57.893Z,52.60
2018-04-16T13:17:37.216Z,52.20
2018-04-16T13:20:10.669Z,51.30
2018-04-16T13:22:44.023Z,51.10
2018-04-16T13:25:17.648Z,50.50
2018-04-16T13:27:51.033Z,50.20
2018-04-16T13:30:18.629Z,50.70
2018-04-16T13:32:46.194Z,49.20
2018-04-16T13:35:13.778Z,47.80
2018-04-16T13:37:41.316Z,46.60
2018-04-16T13:40:15.484Z,47.80
2018-04-16T13:42:48.922Z,47.60
2018-04-16T13:45:28.388Z,47.10
2018-04-16T13:47:55.997Z,47.90
2018-04-16T13:50:29.624Z,47.80
2018-04-16T13:52:57.246Z,47.80
2018-04-16T13:55:25.238Z,47.30
2018-04-16T13:57:52.857Z,47.80
2018-04-16T14:00:20.458Z,47.30
2018-04-16T14:02:53.772Z,47.80
2018-04-16T14:05:27.155Z,48.10
2018-04-16T14:07:54.773Z,48.60
2018-04-16T14:10:22.399Z,48.90
2018-04-16T14:12:56.699Z,49.80
2018-04-16T14:15:25.769Z,49.10
2018-04-16T14:17:53.389Z,49.10
2018-04-16T14:20:20.959Z,48.30
2018-04-16T14:22:48.543Z,49.00
2018-04-16T14:25:16.110Z,49.10
2018-04-16T14:27:49.604Z,48.90
2018-04-16T14:30:17.209Z,48.80
2018-04-16T14:32:51.336Z,47.40
2018-04-16T14:35:25.715Z,48.20
2018-04-16T14:37:58.997Z,48.00
2018-04-16T14:40:26.600Z,45.70
2018-04-16T14:42:54.970Z,46.40
2018-04-16T14:45:23.340Z,46.10
2018-04-16T14:47:50.971Z,46.10
2018-04-16T14:50:18.583Z,43.70
2018-04-16T14:52:46.977Z,43.50
2018-04-16T14:55:20.540Z,43.50
2018-04-16T14:57:48.145Z,43.50
2018-04-16T15:00:21.652Z,42.80
2018-04-16T15:02:49.244Z,44.20
2018-04-16T15:05:16.888Z,43.40
2018-04-16T15:07:44.478Z,42.00
2018-04-16T15:10:13.360Z,43.20
2018-04-16T15:12:40.939Z,43.20
2018-04-16T15:15:08.547Z,43.10
2018-04-16T15:17:36.154Z,42.40
2018-04-16T15:20:03.817Z,43.10
2018-04-16T15:22:31.430Z,43.70
2018-04-16T15:25:02.524Z,46.00
2018-04-16T15:27:30.125Z,47.90
2018-04-16T15:29:57.731Z,48.40
2018-04-16T15:32:25.353Z,49.70
2018-04-16T15:34:52.993Z,50.00
2018-04-16T15:37:21.323Z,51.00
2018-04-16T15:39:48.927Z,51.00
2018-04-16T15:42:16.563Z,51.60
2018-04-16T15:44:44.176Z,51.70
2018-04-16T15:47:11.783Z,52.40
2018-04-16T15:49:39.512Z,52.30
2018-04-16T15:52:07.139Z,51.60
2018-04-16T15:54:35.524Z,51.50
2018-04-16T15:57:03.210Z,51.50
2018-04-16T15:59:34.022Z,51.50
2018-04-16T16:02:02.028Z,51.60
2018-04-16T16:04:29.669Z,51.40
2018-04-16T16:06:57.311Z,52.20
2018-04-16T16:09:24.954Z,50.70
2018-04-16T16:11:53.370Z,50.00
2018-04-16T16:14:21.003Z,50.00
2018-04-16T16:16:49.459Z,50.00
2018-04-16T16:19:17.075Z,50.00
2018-04-16T16:21:44.665Z,50.30
2018-04-16T16:24:12.297Z,49.90
2018-04-16T16:26:39.897Z,48.70
2018-04-16T16:29:08.258Z,47.30
2018-04-16T16:31:36.107Z,47.30
2018-04-16T16:34:03.707Z,46.60
2018-04-16T16:36:31.268Z,45.20
2018-04-16T16:38:59.057Z,44.10
2018-04-16T16:41:27.434Z,43.80
2018-04-16T16:43:55.822Z,44.10
2018-04-16T16:46:23.449Z,44.00
2018-04-16T16:48:51.367Z,43.70
2018-04-16T16:51:19.026Z,43.90
2018-04-16T16:53:47.334Z,43.20
2018-04-16T16:56:14.955Z,44.20
2018-04-16T16:58:42.561Z,44.10
2018-04-16T17:01:11.000Z,44.30
2018-04-16T17:03:39.428Z,44.90
2018-04-16T17:06:08.902Z,45.80
2018-04-16T17:08:36.626Z,45.90
2018-04-16T17:11:04.988Z,46.10
2018-04-16T17:13:32.587Z,46.00
2018-04-16T17:16:00.202Z,46.40
2018-04-16T17:18:27.796Z,46.30
2018-04-16T17:20:56.138Z,46.20
2018-04-16T17:23:23.822Z,46.20
2018-04-16T17:26:02.709Z,46.20
2018-04-16T17:28:30.474Z,46.10
2018-04-16T17:30:58.128Z,46.90
2018-04-16T17:33:26.205Z,47.20
2018-04-16T17:35:53.832Z,47.40
2018-04-16T17:38:21.439Z,47.70
2018-04-16T17:40:49.336Z,48.30
2018-04-16T17:43:23.242Z,49.10
2018-04-16T17:45:52.037Z,49.40
2018-04-16T17:48:26.390Z,49.90
2018-04-16T17:51:08.484Z,50.10
2018-04-16T17:53:36.167Z,50.60
2018-04-16T17:56:23.117Z,51.10
2018-04-16T17:58:50.787Z,51.70
2018-04-16T18:01:19.167Z,52.90
2018-04-16T18:03:47.329Z,52.80
2018-04-16T18:06:15.772Z,53.50
2018-04-16T18:08:43.442Z,53.40
2018-04-16T18:11:11.135Z,54.10
2018-04-16T18:13:39.661Z,54.70
2018-04-16T18:16:07.281Z,54.70
2018-04-16T18:18:35.805Z,55.10
2018-04-16T18:21:03.543Z,55.00
2018-04-16T18:23:31.286Z,55.40
2018-04-16T18:25:59.675Z,56.30
2018-04-16T18:28:28.229Z,55.70
2018-04-16T18:30:55.940Z,55.70
2018-04-16T18:33:23.578Z,55.90
2018-04-16T18:35:51.961Z,56.40
2018-04-16T18:38:20.810Z,56.40
2018-04-16T18:40:48.598Z,56.70
2018-04-16T18:43:16.180Z,57.20
2018-04-16T18:48:49.237Z,58.00
2018-04-16T18:51:16.860Z,58.70
2018-04-16T18:53:45.156Z,59.70
2018-04-16T18:56:12.700Z,59.70
2018-04-16T18:58:41.004Z,60.00
2018-04-16T19:01:08.607Z,60.00
2018-04-16T19:03:36.131Z,60.50
2018-04-16T19:06:03.674Z,61.20
2018-04-16T19:08:31.222Z,62.10
2018-04-16T19:10:58.751Z,62.00
2018-04-16T19:13:26.308Z,62.00
2018-04-16T19:15:53.839Z,63.00
2018-04-16T19:18:30.086Z,63.60
2018-04-16T19:21:03.374Z,63.80
2018-04-16T19:23:33.053Z,63.90
2018-04-16T19:26:00.555Z,65.10
2018-04-16T19:28:28.094Z,65.40
2018-04-16T19:31:01.792Z,65.00
2018-04-16T19:33:34.962Z,66.80
2018-04-16T19:36:03.178Z,67.10
2018-04-16T19:38:31.978Z,66.20
2018-04-16T19:41:01.799Z,66.50
2018-04-16T19:43:29.464Z,66.10
2018-04-16T19:45:57.031Z,66.60
2018-04-16T19:48:24.552Z,68.30
2018-04-16T19:50:52.092Z,68.00
2018-04-16T19:53:19.618Z,67.60
2018-04-16T19:55:52.762Z,68.00
2018-04-16T19:58:30.568Z,68.50
2018-04-16T20:00:58.090Z,67.90
2018-04-16T20:03:32.180Z,68.80
2018-04-16T20:05:59.730Z,68.70
2018-04-16T20:08:27.302Z,68.60
2018-04-16T20:10:55.688Z,70.20
2018-04-16T20:13:24.052Z,69.70
2018-04-16T20:15:51.723Z,69.70
2018-04-16T20:18:20.866Z,70.50
2018-04-16T20:20:48.518Z,70.50
2018-04-16T20:23:16.135Z,70.00
2018-04-16T20:25:58.364Z,71.20
2018-04-16T20:28:25.966Z,71.40
2018-04-16T20:30:53.601Z,71.20
2018-04-16T20:33:21.300Z,71.70
2018-04-16T20:35:48.902Z,71.80
2018-04-16T20:38:17.248Z,71.80
2018-04-16T20:40:44.881Z,71.80
2018-04-16T20:43:12.490Z,72.30
2018-04-16T20:45:52.750Z,72.50
2018-04-16T20:48:21.128Z,72.70
2018-04-16T20:50:48.784Z,72.70
2018-04-16T20:53:16.344Z,72.80
2018-04-16T20:55:43.963Z,72.50
2018-04-16T20:58:11.587Z,73.40
2018-04-16T21:00:39.990Z,73.90
2018-04-16T21:03:07.647Z,73.80
2018-04-16T21:05:37.280Z,73.80
2018-04-16T21:08:04.843Z,73.30
2018-04-16T21:10:32.464Z,74.10
2018-04-16T21:13:00.076Z,74.40
2018-04-16T21:15:27.746Z,74.10
2018-04-16T21:17:55.358Z,74.20
2018-04-16T21:20:23.017Z,74.10
2018-04-16T21:22:50.707Z,74.30
2018-04-16T21:25:18.308Z,74.50
2018-04-16T21:27:48.645Z,74.30
2018-04-16T21:30:17.012Z,75.30
2018-04-16T21:32:44.654Z,76.00
2018-04-16T21:35:12.318Z,75.20
2018-04-16T21:37:39.946Z,75.30
2018-04-16T21:40:11.162Z,75.40
2018-04-16T21:42:39.558Z,75.90
2018-04-16T21:45:07.150Z,75.90
2018-04-16T21:47:34.989Z,76.30
2018-04-16T21:50:02.602Z,76.20
2018-04-16T21:52:30.196Z,77.10
2018-04-16T21:54:57.838Z,77.60
2018-04-16T21:57:26.212Z,77.60
2018-04-16T21:59:53.824Z,77.50
2018-04-16T22:02:21.416Z,77.50
2018-04-16T22:04:49.026Z,77.10
2018-04-16T22:07:16.640Z,76.90
2018-04-16T22:09:44.272Z,77.10
2018-04-16T22:12:11.872Z,76.90
2018-04-16T22:14:39.460Z,77.00
2018-04-16T22:17:07.073Z,77.40
2018-04-16T22:19:35.455Z,78.20
2018-04-16T22:22:03.037Z,77.50
2018-04-16T22:24:30.660Z,77.40
2018-04-16T22:26:58.288Z,77.80
2018-04-16T22:29:25.912Z,77.50
2018-04-16T22:31:53.573Z,77.20
2018-04-16T22:34:21.948Z,77.90
2018-04-16T22:36:49.566Z,77.80
2018-04-16T22:39:17.196Z,77.70
2018-04-16T22:41:45.580Z,77.60
2018-04-16T22:44:13.918Z,77.90
2018-04-16T22:46:41.562Z,78.00
2018-04-16T22:49:09.156Z,78.30
2018-04-16T22:51:36.739Z,78.60
2018-04-16T22:54:05.110Z,79.50
2018-04-16T22:56:32.725Z,79.50
2018-04-16T22:59:00.333Z,79.50
2018-04-16T23:01:28.745Z,80.00
2018-04-16T23:03:56.350Z,79.90
2018-04-16T23:06:32.477Z,80.20
2018-04-16T23:09:00.088Z,80.10
2018-04-16T23:11:28.439Z,81.30
2018-04-16T23:13:56.056Z,80.50
2018-04-16T23:16:23.679Z,80.10
2018-04-16T23:18:51.249Z,80.70
2018-04-16T23:21:19.636Z,80.30
2018-04-16T23:23:47.218Z,80.20
2018-04-16T23:26:14.833Z,80.80
2018-04-16T23:28:42.393Z,81.30
2018-04-16T23:31:10.013Z,81.10
2018-04-16T23:33:42.613Z,81.20
2018-04-16T23:36:10.281Z,81.50
2018-04-16T23:38:37.868Z,81.00
2018-04-16T23:41:06.235Z,82.00
2018-04-16T23:43:33.808Z,81.30
2018-04-16T23:46:02.151Z,82.10
2018-04-16T23:48:29.777Z,82.00
2018-04-16T23:50:57.372Z,82.20
2018-04-16T23:53:25.012Z,82.10
2018-04-16T23:55:52.637Z,81.70
2018-04-16T23:58:20.992Z,81.90
